createdAt,value
2019-01-20T00:02:45.089Z,19.47
2019-01-20T00:05:32.327Z,18.67
2019-01-20T00:08:19.461Z,23.57
2019-01-20T00:11:06.622Z,20.40
2019-01-20T00:13:53.926Z,18.83
2019-01-20T00:16:40.903Z,21.13
2019-01-20T00:19:28.001Z,17.53
2019-01-20T00:22:15.278Z,15.70
2019-01-20T00:25:02.385Z,20.30
2019-01-20T00:27:49.337Z,20.17
2019-01-20T00:30:36.622Z,17.77
2019-01-20T00:33:23.890Z,18.20
2019-01-20T00:36:11.127Z,16.77
2019-01-20T00:38:58.173Z,21.10
2019-01-20T00:41:45.083Z,60.60
2019-01-20T00:44:32.390Z,33.87
2019-01-20T00:47:19.371Z,26.27
2019-01-20T00:50:08.928Z,18.80
2019-01-20T00:52:55.918Z,19.40
2019-01-20T00:55:42.949Z,20.13
2019-01-20T00:58:30.081Z,19.50
2019-01-20T01:01:17.136Z,17.37
2019-01-20T01:04:04.575Z,17.67
2019-01-20T01:06:51.810Z,17.77
2019-01-20T01:09:38.962Z,17.60
2019-01-20T01:12:25.959Z,18.93
2019-01-20T01:15:13.217Z,16.50
2019-01-20T01:18:00.329Z,17.63
2019-01-20T01:20:47.513Z,20.60
2019-01-20T01:23:34.253Z,20.83
2019-01-20T01:26:21.297Z,16.90
2019-01-20T01:29:08.010Z,22.97
2019-01-20T01:31:55.316Z,19.93
2019-01-20T01:34:42.294Z,21.67
2019-01-20T01:37:29.429Z,16.87
2019-01-20T01:40:17.860Z,21.23
2019-01-20T01:43:05.042Z,21.00
2019-01-20T01:45:52.212Z,18.97
2019-01-20T01:48:39.361Z,19.80
2019-01-20T01:51:26.704Z,18.40
2019-01-20T01:54:13.985Z,21.10
2019-01-20T01:57:01.164Z,20.67
2019-01-20T01:59:48.247Z,20.57
2019-01-20T02:02:35.499Z,21.60
2019-01-20T02:05:22.618Z,22.40
2019-01-20T02:08:09.361Z,21.53
2019-01-20T02:10:56.077Z,25.20
2019-01-20T02:13:43.405Z,25.27
2019-01-20T02:16:30.359Z,23.20
2019-01-20T02:19:17.382Z,21.03
2019-01-20T02:22:04.670Z,20.47
2019-01-20T02:24:51.944Z,20.37
2019-01-20T02:27:39.009Z,22.90
2019-01-20T02:30:28.169Z,21.97
2019-01-20T02:33:15.461Z,21.40
2019-01-20T02:36:02.654Z,21.10
2019-01-20T02:38:49.514Z,21.33
2019-01-20T02:41:37.316Z,21.50
2019-01-20T02:44:24.556Z,25.57
2019-01-20T02:47:11.564Z,19.30
2019-01-20T02:49:58.864Z,20.40
2019-01-20T02:52:45.980Z,19.73
2019-01-20T02:55:33.251Z,19.30
2019-01-20T02:58:20.452Z,21.67
2019-01-20T03:01:07.728Z,18.40
2019-01-20T03:03:54.827Z,19.00
2019-01-20T03:06:41.812Z,22.97
2019-01-20T03:09:28.881Z,22.37
2019-01-20T03:12:16.043Z,22.43
2019-01-20T03:15:02.721Z,22.57
2019-01-20T03:17:49.510Z,21.07
2019-01-20T03:20:36.785Z,24.03
2019-01-20T03:23:23.763Z,19.97
2019-01-20T03:26:11.139Z,20.83
2019-01-20T03:28:58.170Z,23.60
2019-01-20T03:31:45.150Z,27.57
2019-01-20T03:34:31.849Z,21.70
2019-01-20T03:37:19.235Z,23.43
2019-01-20T03:40:09.520Z,25.43
2019-01-20T03:42:56.590Z,40.20
2019-01-20T03:45:43.862Z,29.50
2019-01-20T03:48:31.037Z,37.53
2019-01-20T03:51:18.049Z,27.00
2019-01-20T03:54:05.781Z,38.07
2019-01-20T03:56:53.117Z,36.60
2019-01-20T03:59:40.312Z,26.30
2019-01-20T04:02:27.321Z,23.53
2019-01-20T04:05:14.528Z,27.30
2019-01-20T04:08:01.828Z,23.30
2019-01-20T04:10:48.849Z,23.33
2019-01-20T04:13:36.158Z,22.47
2019-01-20T04:16:23.367Z,25.03
2019-01-20T04:19:10.297Z,23.40
2019-01-20T04:21:57.330Z,27.73
2019-01-20T04:24:44.515Z,26.63
2019-01-20T04:27:31.669Z,26.23
2019-01-20T04:30:20.156Z,26.53
2019-01-20T04:33:07.279Z,25.30
2019-01-20T04:35:54.641Z,25.40
2019-01-20T04:38:41.588Z,23.07
2019-01-20T04:41:29.022Z,23.60
2019-01-20T04:44:15.788Z,25.77
2019-01-20T04:47:02.519Z,21.47
2019-01-20T04:49:49.996Z,23.90
2019-01-20T04:52:37.404Z,24.27
2019-01-20T04:55:24.762Z,21.97
2019-01-20T04:58:12.143Z,20.13
2019-01-20T05:00:59.108Z,22.67
2019-01-20T05:03:45.940Z,23.73
2019-01-20T05:06:32.944Z,25.07
2019-01-20T05:09:20.141Z,26.83
2019-01-20T05:12:07.381Z,24.87
2019-01-20T05:14:54.329Z,23.63
2019-01-20T05:17:41.356Z,24.93
2019-01-20T05:20:28.825Z,21.33
2019-01-20T05:23:16.138Z,27.23
2019-01-20T05:26:03.444Z,24.53
2019-01-20T05:28:50.750Z,23.53
2019-01-20T05:31:38.007Z,25.27
2019-01-20T05:34:25.292Z,26.13
2019-01-20T05:37:12.294Z,22.97
2019-01-20T05:39:59.613Z,19.40
2019-01-20T05:42:47.228Z,24.77
2019-01-20T05:45:34.559Z,24.03
2019-01-20T05:48:21.709Z,24.57
2019-01-20T05:51:08.994Z,28.90
2019-01-20T05:53:56.291Z,28.93
2019-01-20T05:56:43.072Z,27.37
2019-01-20T05:59:30.259Z,28.43
2019-01-20T06:02:17.615Z,28.37
2019-01-20T06:05:05.584Z,24.47
2019-01-20T06:07:52.676Z,21.13
2019-01-20T06:10:39.961Z,19.47
2019-01-20T06:13:26.935Z,24.57
2019-01-20T06:16:14.229Z,21.07
2019-01-20T06:19:01.290Z,19.03
2019-01-20T06:21:48.346Z,21.97
2019-01-20T06:24:35.589Z,21.67
2019-01-20T06:27:23.001Z,18.50
2019-01-20T06:30:13.033Z,18.53
2019-01-20T06:32:59.947Z,19.67
2019-01-20T06:35:47.185Z,20.57
2019-01-20T06:38:34.078Z,21.40
2019-01-20T06:41:20.703Z,23.03
2019-01-20T06:44:08.115Z,24.17
2019-01-20T06:46:55.221Z,23.33
2019-01-20T06:49:42.225Z,20.37
2019-01-20T06:52:29.609Z,22.10
2019-01-20T06:55:16.681Z,21.60
2019-01-20T06:58:04.085Z,23.27
2019-01-20T07:00:51.120Z,23.30
2019-01-20T07:03:38.381Z,22.60
2019-01-20T07:06:25.617Z,20.73
2019-01-20T07:09:12.861Z,20.70
2019-01-20T07:12:00.205Z,21.17
2019-01-20T07:14:47.362Z,21.47
2019-01-20T07:17:34.664Z,19.90
2019-01-20T07:20:21.598Z,20.73
2019-01-20T07:23:08.743Z,19.53
2019-01-20T07:25:56.075Z,21.07
2019-01-20T07:28:43.106Z,19.97
2019-01-20T07:31:29.866Z,19.40
2019-01-20T07:34:17.459Z,22.77
2019-01-20T07:37:04.542Z,26.17
2019-01-20T07:39:51.567Z,30.73
2019-01-20T07:42:38.977Z,24.93
2019-01-20T07:45:26.013Z,30.70
2019-01-20T07:48:13.200Z,25.60
2019-01-20T07:51:00.455Z,18.97
2019-01-20T07:53:47.537Z,21.47
2019-01-20T07:56:34.855Z,21.90
2019-01-20T07:59:21.525Z,19.67
2019-01-20T08:02:08.949Z,22.47
2019-01-20T08:04:56.195Z,22.67
2019-01-20T08:07:43.598Z,21.87
2019-01-20T08:10:30.817Z,22.80
2019-01-20T08:13:24.160Z,22.30
2019-01-20T08:16:06.760Z,23.53
2019-01-20T08:18:53.805Z,19.70
2019-01-20T08:21:41.211Z,28.97
2019-01-20T08:24:28.207Z,26.97
2019-01-20T08:27:15.857Z,25.77
2019-01-20T08:30:04.630Z,27.87
2019-01-20T08:32:51.741Z,28.43
2019-01-20T08:35:39.122Z,26.70
2019-01-20T08:38:26.405Z,26.10
2019-01-20T08:41:13.392Z,25.50
2019-01-20T08:44:00.696Z,26.63
2019-01-20T08:46:50.453Z,25.97
2019-01-20T08:49:37.631Z,29.77
2019-01-20T08:52:25.219Z,29.10
2019-01-20T08:55:12.685Z,30.50
2019-01-20T08:57:59.715Z,43.00
2019-01-20T09:00:46.761Z,48.23
2019-01-20T09:03:33.928Z,41.97
2019-01-20T09:06:20.942Z,37.20
2019-01-20T09:09:08.079Z,42.90
2019-01-20T09:11:55.193Z,40.93
2019-01-20T09:14:42.499Z,36.37
2019-01-20T09:17:29.501Z,30.33
2019-01-20T09:20:17.069Z,33.20
2019-01-20T09:23:04.617Z,32.43
2019-01-20T09:25:51.874Z,27.47
2019-01-20T09:28:38.932Z,21.63
2019-01-20T09:31:26.033Z,19.30
2019-01-20T09:34:13.219Z,19.63
2019-01-20T09:37:00.327Z,20.93
2019-01-20T09:39:47.735Z,16.03
2019-01-20T09:42:35.026Z,16.43
2019-01-20T09:45:28.975Z,16.57
2019-01-20T09:48:15.981Z,17.83
2019-01-20T09:51:03.389Z,18.27
2019-01-20T09:53:50.641Z,18.43
2019-01-20T09:56:37.663Z,20.10
2019-01-20T09:59:25.076Z,20.03
2019-01-20T10:02:12.267Z,20.83
2019-01-20T10:04:59.199Z,22.00
2019-01-20T10:07:46.483Z,18.83
2019-01-20T10:10:33.502Z,19.20
2019-01-20T10:13:20.372Z,20.00
2019-01-20T10:16:07.321Z,19.90
2019-01-20T10:18:54.446Z,19.87
2019-01-20T10:21:41.484Z,24.47
2019-01-20T10:24:28.549Z,24.63
2019-01-20T10:27:15.947Z,26.70
2019-01-20T10:30:03.209Z,27.17
2019-01-20T10:32:50.417Z,23.83
2019-01-20T10:35:38.949Z,26.27
2019-01-20T10:38:25.753Z,27.17
2019-01-20T10:41:12.761Z,25.43
2019-01-20T10:44:02.272Z,25.67
2019-01-20T10:46:48.289Z,25.13
2019-01-20T10:49:35.657Z,24.07
2019-01-20T10:52:22.410Z,25.87
2019-01-20T10:55:09.792Z,23.30
2019-01-20T10:57:56.633Z,30.97
2019-01-20T11:00:44.024Z,21.87
2019-01-20T11:03:30.745Z,22.50
2019-01-20T11:06:18.043Z,24.57
2019-01-20T11:09:06.335Z,21.20
2019-01-20T11:11:53.261Z,20.03
2019-01-20T11:14:40.816Z,19.40
2019-01-20T11:17:28.287Z,18.70
2019-01-20T11:20:18.303Z,18.73
2019-01-20T11:23:05.828Z,20.68
2019-01-20T11:25:53.126Z,20.33
2019-01-20T11:28:39.973Z,18.97
2019-01-20T11:31:27.371Z,20.73
2019-01-20T11:34:14.517Z,19.00
2019-01-20T11:37:02.022Z,18.63
2019-01-20T11:39:49.073Z,19.70
2019-01-20T11:42:36.333Z,19.03
2019-01-20T11:45:30.932Z,17.83
2019-01-20T11:48:18.358Z,20.90
2019-01-20T11:51:05.516Z,19.03
2019-01-20T11:53:52.763Z,17.83
2019-01-20T11:56:40.191Z,19.33
2019-01-20T11:59:27.212Z,18.40
2019-01-20T12:02:22.268Z,19.57
2019-01-20T12:05:08.390Z,18.20
2019-01-20T12:07:55.834Z,17.27
2019-01-20T12:10:42.951Z,19.77
2019-01-20T12:13:30.310Z,19.20
2019-01-20T12:16:17.274Z,20.63
2019-01-20T12:19:04.449Z,20.93
2019-01-20T12:21:51.870Z,20.07
2019-01-20T12:24:39.108Z,22.60
2019-01-20T12:27:26.428Z,23.50
2019-01-20T12:30:37.472Z,20.27
2019-01-20T12:33:24.734Z,22.37
2019-01-20T12:36:12.045Z,23.30
2019-01-20T12:38:59.355Z,25.13
2019-01-20T12:41:46.682Z,25.47
2019-01-20T12:44:34.008Z,29.43
2019-01-20T12:47:21.165Z,28.57
2019-01-20T12:50:11.503Z,28.90
2019-01-20T12:52:58.737Z,30.03
2019-01-20T12:55:45.830Z,30.90
2019-01-20T12:58:32.748Z,31.00
2019-01-20T13:01:19.800Z,29.60
2019-01-20T13:04:07.171Z,34.67
2019-01-20T13:06:54.183Z,31.70
2019-01-20T13:09:41.650Z,32.90
2019-01-20T13:12:28.699Z,32.03
2019-01-20T13:15:18.774Z,28.53
2019-01-20T13:18:05.953Z,28.53
2019-01-20T13:20:53.081Z,30.57
2019-01-20T13:23:40.243Z,40.77
2019-01-20T13:26:27.576Z,30.57
2019-01-20T13:29:14.763Z,32.77
2019-01-20T13:32:01.698Z,30.43
2019-01-20T13:34:48.383Z,31.73
2019-01-20T13:37:35.686Z,30.27
2019-01-20T13:40:43.919Z,31.10
2019-01-20T13:43:30.635Z,29.90
2019-01-20T13:46:18.034Z,30.70
2019-01-20T13:49:05.385Z,30.60
2019-01-20T13:51:52.595Z,27.97
2019-01-20T13:54:39.543Z,29.17
2019-01-20T13:57:26.605Z,29.37
2019-01-20T14:00:19.177Z,30.33
2019-01-20T14:03:06.581Z,30.57
2019-01-20T14:05:53.568Z,30.50
2019-01-20T14:08:44.352Z,30.30
2019-01-20T14:11:29.291Z,33.10
2019-01-20T14:14:16.726Z,33.50
2019-01-20T14:17:03.769Z,34.70
2019-01-20T14:19:50.684Z,30.87
2019-01-20T14:22:38.101Z,33.20
2019-01-20T14:25:29.067Z,29.23
2019-01-20T14:28:16.408Z,31.00
2019-01-20T14:31:03.567Z,31.50
2019-01-20T14:33:50.682Z,28.33
2019-01-20T14:36:38.055Z,28.10
2019-01-20T14:39:25.401Z,30.20
2019-01-20T14:42:12.648Z,29.40
2019-01-20T14:45:01.109Z,30.57
2019-01-20T14:47:48.479Z,27.37
2019-01-20T14:50:35.514Z,26.87
2019-01-20T14:53:22.605Z,29.13
2019-01-20T14:56:09.672Z,29.60
2019-01-20T14:58:56.618Z,27.13
2019-01-20T15:01:43.604Z,28.13
2019-01-20T15:04:30.427Z,27.20
2019-01-20T15:07:18.059Z,24.83
2019-01-20T15:10:08.573Z,25.33
2019-01-20T15:12:55.886Z,22.10
2019-01-20T15:15:43.070Z,23.27
2019-01-20T15:18:30.398Z,25.70
2019-01-20T15:21:17.546Z,25.10
2019-01-20T15:24:05.057Z,24.93
2019-01-20T15:26:52.364Z,21.03
2019-01-20T15:29:39.367Z,22.90
2019-01-20T15:32:26.418Z,24.17
2019-01-20T15:35:14.090Z,23.70
2019-01-20T15:38:01.329Z,24.83
2019-01-20T15:40:48.422Z,24.03
2019-01-20T15:43:35.803Z,25.93
2019-01-20T15:46:22.961Z,23.53
2019-01-20T15:49:10.340Z,25.50
2019-01-20T15:51:57.152Z,25.73
2019-01-20T15:54:44.521Z,27.67
2019-01-20T15:57:31.505Z,30.03
2019-01-20T16:00:24.497Z,32.93
2019-01-20T16:03:12.021Z,36.57
2019-01-20T16:05:59.494Z,31.93
2019-01-20T16:08:46.526Z,30.77
2019-01-20T16:11:33.382Z,31.20
2019-01-20T16:14:20.371Z,31.37
2019-01-20T16:17:07.487Z,33.33
2019-01-20T16:19:54.553Z,32.70
2019-01-20T16:22:41.801Z,32.33
2019-01-20T16:25:31.517Z,34.20
2019-01-20T16:28:18.491Z,31.33
2019-01-20T16:31:05.914Z,34.87
2019-01-20T16:33:53.298Z,32.50
2019-01-20T16:36:40.500Z,37.00
2019-01-20T16:39:27.415Z,34.23
2019-01-20T16:42:14.663Z,34.80
2019-01-20T16:45:01.763Z,35.13
2019-01-20T16:47:48.581Z,34.70
2019-01-20T16:50:35.751Z,32.37
2019-01-20T16:53:22.976Z,35.00
2019-01-20T16:56:10.368Z,37.73
2019-01-20T16:58:57.231Z,34.70
2019-01-20T17:01:44.460Z,35.60
2019-01-20T17:04:31.763Z,35.00
2019-01-20T17:07:19.165Z,34.80
2019-01-20T17:10:09.149Z,36.97
2019-01-20T17:12:56.343Z,34.50
2019-01-20T17:15:43.623Z,35.83
2019-01-20T17:18:30.956Z,37.37
2019-01-20T17:21:18.113Z,37.97
2019-01-20T17:24:05.579Z,38.50
2019-01-20T17:26:52.804Z,40.53
2019-01-20T17:29:39.857Z,38.53
2019-01-20T17:32:27.001Z,38.10
2019-01-20T17:35:14.177Z,38.97
2019-01-20T17:38:01.252Z,44.57
2019-01-20T17:40:48.451Z,41.20
2019-01-20T17:43:35.775Z,39.97
2019-01-20T17:46:22.827Z,39.53
2019-01-20T17:49:10.623Z,37.17
2019-01-20T17:51:57.999Z,42.83
2019-01-20T17:54:45.311Z,40.20
2019-01-20T17:57:33.700Z,38.83
2019-01-20T18:00:28.383Z,44.67
2019-01-20T18:03:16.309Z,44.67
2019-01-20T18:06:03.982Z,46.47
2019-01-20T18:08:51.046Z,46.10
2019-01-20T18:11:38.523Z,43.93
2019-01-20T18:14:25.636Z,48.40
2019-01-20T18:17:13.070Z,44.70
2019-01-20T18:20:00.433Z,44.00
2019-01-20T18:22:47.823Z,47.13
2019-01-20T18:25:34.972Z,46.03
2019-01-20T18:28:21.948Z,44.43
2019-01-20T18:31:09.262Z,48.43
2019-01-20T18:33:56.051Z,43.33
2019-01-20T18:36:43.325Z,45.53
2019-01-20T18:39:30.053Z,48.27
2019-01-20T18:42:17.412Z,45.73
2019-01-20T18:45:07.342Z,50.00
2019-01-20T18:47:54.526Z,47.40
2019-01-20T18:50:41.379Z,47.87
2019-01-20T18:53:29.590Z,46.03
2019-01-20T18:56:16.819Z,46.83
2019-01-20T18:59:03.828Z,48.13
2019-01-20T19:01:50.853Z,48.30
2019-01-20T19:04:38.278Z,47.57
2019-01-20T19:07:25.633Z,45.10
2019-01-20T19:10:18.492Z,49.90
2019-01-20T19:13:05.601Z,47.73
2019-01-20T19:15:52.669Z,45.07
2019-01-20T19:18:39.887Z,45.23
2019-01-20T19:21:27.097Z,46.43
2019-01-20T19:24:14.190Z,48.20
2019-01-20T19:27:02.903Z,47.23
2019-01-20T19:29:49.895Z,49.13
2019-01-20T19:32:36.995Z,43.77
2019-01-20T19:35:24.184Z,43.47
2019-01-20T19:38:11.641Z,41.70
2019-01-20T19:40:58.913Z,42.90
2019-01-20T19:43:46.266Z,44.07
2019-01-20T19:46:33.089Z,41.20
2019-01-20T19:49:20.458Z,41.47
2019-01-20T19:52:07.533Z,43.40
2019-01-20T19:54:54.696Z,43.50
2019-01-20T19:57:41.895Z,41.90
2019-01-20T20:00:31.469Z,42.10
2019-01-20T20:03:18.755Z,43.73
2019-01-20T20:06:05.796Z,44.87
2019-01-20T20:08:52.832Z,40.03
2019-01-20T20:11:39.840Z,42.67
2019-01-20T20:14:27.163Z,45.40
2019-01-20T20:17:14.147Z,46.30
2019-01-20T20:20:01.255Z,45.13
2019-01-20T20:22:48.318Z,41.07
2019-01-20T20:25:35.445Z,46.83
2019-01-20T20:28:22.687Z,43.27
2019-01-20T20:31:09.998Z,38.17
2019-01-20T20:33:57.372Z,41.77
2019-01-20T20:36:44.429Z,44.93
2019-01-20T20:39:31.712Z,41.00
2019-01-20T20:42:18.514Z,42.37
2019-01-20T20:45:09.158Z,43.13
2019-01-20T20:47:56.215Z,44.63
2019-01-20T20:50:43.154Z,42.60
2019-01-20T20:53:30.238Z,43.97
2019-01-20T20:56:17.464Z,43.13
2019-01-20T20:59:04.640Z,45.47
2019-01-20T21:01:52.628Z,42.13
2019-01-20T21:04:39.822Z,42.60
2019-01-20T21:07:26.968Z,42.30
2019-01-20T21:10:16.184Z,42.00
2019-01-20T21:13:03.519Z,46.50
2019-01-20T21:15:51.011Z,41.33
2019-01-20T21:18:38.018Z,46.17
2019-01-20T21:21:26.731Z,47.27
2019-01-20T21:24:13.831Z,46.37
2019-01-20T21:27:01.123Z,46.50
2019-01-20T21:29:48.066Z,46.37
2019-01-20T21:32:34.827Z,44.57
2019-01-20T21:35:21.927Z,44.83
2019-01-20T21:38:08.748Z,45.90
2019-01-20T21:40:55.914Z,46.60
2019-01-20T21:43:43.030Z,43.30
2019-01-20T21:46:30.034Z,43.63
2019-01-20T21:49:17.312Z,47.33
2019-01-20T21:52:04.820Z,47.77
2019-01-20T21:54:51.517Z,50.63
2019-01-20T21:57:38.645Z,47.33
2019-01-20T22:00:27.883Z,46.40
2019-01-20T22:03:15.293Z,44.53
2019-01-20T22:06:02.510Z,45.63
2019-01-20T22:08:49.546Z,44.93
2019-01-20T22:11:36.285Z,46.43
2019-01-20T22:14:23.209Z,49.80
2019-01-20T22:17:10.366Z,45.13
2019-01-20T22:19:57.726Z,45.03
2019-01-20T22:22:44.805Z,46.30
2019-01-20T22:25:31.814Z,47.30
2019-01-20T22:28:19.152Z,49.83
2019-01-20T22:31:06.493Z,47.83
2019-01-20T22:33:53.482Z,50.70
2019-01-20T22:36:40.657Z,50.27
2019-01-20T22:39:28.157Z,51.87
2019-01-20T22:42:15.430Z,49.80
2019-01-20T22:45:02.701Z,56.77
2019-01-20T22:47:49.722Z,49.53
2019-01-20T22:50:36.611Z,51.27
2019-01-20T22:53:23.637Z,54.13
2019-01-20T22:56:10.993Z,57.23
2019-01-20T22:58:58.597Z,53.07
2019-01-20T23:01:45.788Z,55.33
2019-01-20T23:04:32.802Z,60.77
2019-01-20T23:07:20.202Z,55.57
2019-01-20T23:10:07.549Z,59.07
2019-01-20T23:12:54.783Z,58.97
2019-01-20T23:15:41.978Z,51.93
2019-01-20T23:18:29.032Z,55.63
2019-01-20T23:21:16.134Z,57.20
2019-01-20T23:24:03.234Z,54.20
2019-01-20T23:26:50.607Z,58.10
2019-01-20T23:29:37.846Z,59.10
2019-01-20T23:32:24.894Z,56.37
2019-01-20T23:35:11.902Z,59.43
2019-01-20T23:37:58.820Z,56.27
2019-01-20T23:40:45.772Z,62.23
2019-01-20T23:43:32.812Z,61.90
2019-01-20T23:46:19.517Z,59.27
2019-01-20T23:49:06.204Z,62.63
2019-01-20T23:51:53.365Z,57.17
2019-01-20T23:54:40.630Z,57.67
2019-01-20T23:57:27.850Z,58.17
